Time;durP1;ratioP1;P1;durP2;ratioP2;P2;SDS_P1;SDS_P2;PMS_P1;PMS_P2;Temp;Humidity;BMP_temperature;BMP_pressure;BME280_temperature;BME280_humidity;BME280_pressure;Samples;Min_cycle;Max_cycle;Signal;HPM_P1;HPM_P2
2021/12/12 00:00:28;;;;;;;0.20;0.20;;;;;;;4.28;87.39;102033.56;5000469;28;20400;-73
2021/12/12 00:02:58;;;;;;;0.10;0.10;;;;;;;4.29;86.86;102034.47;5014415;28;20041;-73
2021/12/12 00:05:47;;;;;;;0.10;0.10;;;;;;;4.27;87.46;102026.56;5017994;28;20444;-73
2021/12/12 00:08:14;;;;;;;0.23;0.23;;;;;;;4.29;87.50;102034.47;5030009;28;20042;-73
2021/12/12 00:10:42;;;;;;;0.10;0.10;;;;;;;4.26;87.79;102024.78;5019241;28;20459;-73
2021/12/12 00:13:12;;;;;;;0.10;0.10;;;;;;;4.28;87.51;102024.88;5007405;28;20036;-73
2021/12/12 00:15:39;;;;;;;0.20;0.20;;;;;;;4.28;87.47;102023.19;5018595;28;20119;-74
2021/12/12 00:18:04;;;;;;;0.10;0.10;;;;;;;4.28;87.62;102011.94;5019246;28;20033;-74
2021/12/12 00:20:31;;;;;;;0.10;0.10;;;;;;;4.26;87.67;102012.69;5013258;28;20092;-74
2021/12/12 00:22:59;;;;;;;0.10;0.10;;;;;;;4.29;87.67;102003.34;5009411;28;20033;-74
2021/12/12 00:25:41;;;;;;;0.10;0.10;;;;;;;4.26;87.75;101999.72;5019279;28;20109;-75
2021/12/12 00:28:08;;;;;;;0.20;0.20;;;;;;;4.31;87.59;102002.69;5018818;28;20026;-74
2021/12/12 00:30:34;;;;;;;0.10;0.10;;;;;;;4.31;87.63;102002.69;5018387;28;20044;-73
2021/12/12 00:33:00;;;;;;;0.20;0.20;;;;;;;4.31;87.54;101993.97;5018941;28;20025;-74
2021/12/12 00:35:26;;;;;;;0.10;0.10;;;;;;;4.28;87.52;101994.66;5034621;28;20026;-75
2021/12/12 00:37:57;;;;;;;0.10;0.10;;;;;;;4.27;87.80;101995.44;5012190;28;20040;-74
2021/12/12 00:40:32;;;;;;;0.10;0.10;;;;;;;4.26;87.93;101994.53;4999588;28;20102;-74
2021/12/12 00:43:01;;;;;;;0.20;0.20;;;;;;;4.31;87.86;101993.97;4998347;28;20054;-73
2021/12/12 00:45:27;;;;;;;0.10;0.10;;;;;;;4.31;87.80;101983.59;5000911;28;20022;-75
2021/12/12 00:47:54;;;;;;;0.10;0.10;;;;;;;4.32;87.93;101988.91;5019136;28;20062;-75
2021/12/12 00:50:36;;;;;;;0.10;0.10;;;;;;;4.31;87.77;101984.53;5017610;28;20056;-70
2021/12/12 00:53:04;;;;;;;0.10;0.10;;;;;;;4.36;87.70;101987.44;5017819;28;20026;-73
2021/12/12 00:55:30;;;;;;;0.10;0.10;;;;;;;4.36;87.62;101988.31;5017911;28;20064;-75
2021/12/12 00:57:55;;;;;;;0.10;0.10;;;;;;;4.37;87.41;101991.84;5017224;28;20072;-75
2021/12/12 01:00:25;;;;;;;0.00;0.00;;;;;;;4.38;87.69;101988.44;5018373;28;20014;-74
2021/12/12 01:02:51;;;;;;;0.10;0.10;;;;;;;4.42;87.50;101984.38;5018166;28;20312;-72
2021/12/12 01:05:20;;;;;;;0.10;0.10;;;;;;;4.40;87.53;101984.25;5018002;28;20096;-74
2021/12/12 01:07:47;;;;;;;0.10;0.10;;;;;;;4.43;87.58;101978.41;5011993;28;20033;-76
2021/12/12 01:10:27;;;;;;;0.10;0.10;;;;;;;4.45;87.40;101979.41;4998913;28;20466;-75
2021/12/12 01:12:55;;;;;;;0.10;0.10;;;;;;;4.39;87.51;101972.09;4997769;28;20081;-78
2021/12/12 01:15:35;;;;;;;0.10;0.10;;;;;;;4.41;88.00;101967.91;4999011;28;20022;-76
2021/12/12 01:18:17;;;;;;;0.10;0.10;;;;;;;4.38;87.59;101973.78;5005346;28;20026;-74
2021/12/12 01:20:53;;;;;;;0.10;0.10;;;;;;;4.39;87.91;101973.00;5007164;28;20113;-74
2021/12/12 01:23:22;;;;;;;0.10;0.10;;;;;;;4.42;87.79;101969.72;5012567;28;20109;-73
2021/12/12 01:25:50;;;;;;;0.10;0.10;;;;;;;4.39;87.93;101972.09;5017932;28;20404;-73
2021/12/12 01:28:19;;;;;;;0.00;0.00;;;;;;;4.45;88.15;101976.81;5016573;28;20049;-73
2021/12/12 01:30:45;;;;;;;0.13;0.13;;;;;;;4.48;87.86;101987.44;5018089;28;20137;-74
2021/12/12 01:33:17;;;;;;;0.10;0.10;;;;;;;4.48;88.09;101985.72;5001601;28;20022;-74
2021/12/12 01:35:43;;;;;;;0.10;0.10;;;;;;;4.47;88.20;101970.03;5017820;28;20439;-73
2021/12/12 01:40:55;;;;;;;0.20;0.20;;;;;;;4.48;88.13;101984.84;5007576;28;20071;-73
2021/12/12 01:43:43;;;;;;;0.07;0.07;;;;;;;4.46;88.44;101982.13;5018334;28;20269;-74
2021/12/12 01:46:15;;;;;;;0.10;0.10;;;;;;;4.49;88.08;101986.63;5033963;28;20030;-75
2021/12/12 01:48:53;;;;;;;0.10;0.10;;;;;;;4.46;88.43;101973.44;5016342;28;20026;-73
2021/12/12 01:51:19;;;;;;;0.10;0.10;;;;;;;4.49;88.59;101969.34;5017306;28;20109;-73
2021/12/12 01:53:48;;;;;;;0.10;0.10;;;;;;;4.48;88.51;101964.97;5017841;28;20279;-73
2021/12/12 01:56:42;;;;;;;0.00;0.00;;;;;;;4.49;88.87;101961.56;5017351;28;20049;-73
2021/12/12 01:59:08;;;;;;;0.10;0.10;;;;;;;4.51;88.50;101970.41;5017215;28;20415;-75
2021/12/12 02:01:41;;;;;;;0.10;0.10;;;;;;;4.54;88.72;101959.31;5017519;28;20021;-73
2021/12/12 02:04:14;;;;;;;0.30;0.30;;;;;;;4.54;88.44;101951.53;5017474;28;20033;-75
2021/12/12 02:06:42;;;;;;;0.10;0.10;;;;;;;4.51;88.79;101964.28;5017209;28;20029;-75
2021/12/12 02:09:08;;;;;;;0.13;0.13;;;;;;;4.54;88.79;101961.91;5017741;28;20028;-73
2021/12/12 02:11:34;;;;;;;0.03;0.03;;;;;;;4.52;88.66;101969.59;5016508;28;20096;-71
2021/12/12 02:14:09;;;;;;;0.10;0.10;;;;;;;4.54;88.96;101965.41;5017579;28;20045;-74
2021/12/12 02:16:37;;;;;;;0.00;0.00;;;;;;;4.53;88.48;101958.44;5016649;28;20420;-70
2021/12/12 02:19:04;;;;;;;0.10;0.10;;;;;;;4.53;89.16;101967.88;5017612;28;20223;-74
2021/12/12 02:21:39;;;;;;;0.10;0.10;;;;;;;4.55;89.27;101963.72;5016831;28;20014;-72
2021/12/12 02:37:34;;;;;;;0.10;0.10;;;;;;;4.70;89.22;101944.81;5000806;28;20388;-73
2021/12/12 02:40:00;;;;;;;0.17;0.17;;;;;;;4.67;89.07;101943.81;5014239;28;20380;-71
2021/12/12 02:42:26;;;;;;;0.00;0.00;;;;;;;4.71;88.93;101939.75;5018228;28;20044;-74
2021/12/12 02:44:56;;;;;;;0.00;0.00;;;;;;;4.73;89.28;101945.06;5017403;28;20021;-72
2021/12/12 02:47:31;;;;;;;0.00;0.00;;;;;;;4.73;89.46;101935.56;5017308;28;20056;-72
2021/12/12 02:50:08;;;;;;;0.10;0.10;;;;;;;4.77;89.37;101940.19;5016622;28;20048;-73
2021/12/12 02:52:34;;;;;;;0.00;0.00;;;;;;;4.80;89.32;101952.47;5016220;28;20105;-72
2021/12/12 02:55:05;;;;;;;0.10;0.10;;;;;;;4.78;89.52;101944.56;5017519;28;20117;-73
2021/12/12 02:57:31;;;;;;;0.00;0.00;;;;;;;4.79;89.10;101948.97;5002546;28;20109;-72
2021/12/12 02:59:57;;;;;;;0.00;0.00;;;;;;;4.79;89.39;101956.75;5013785;28;20038;-73
2021/12/12 03:02:27;;;;;;;0.10;0.10;;;;;;;4.81;89.26;101947.38;4997580;28;20124;-78
2021/12/12 03:04:57;;;;;;;0.00;0.00;;;;;;;4.85;89.40;101939.81;4997153;28;20049;-74
2021/12/12 03:07:23;;;;;;;0.10;0.10;;;;;;;4.85;89.25;101947.59;4997108;28;20129;-76
2021/12/12 03:09:54;;;;;;;0.00;0.00;;;;;;;4.88;89.36;101955.59;5006248;28;20113;-74
2021/12/12 03:12:30;;;;;;;0.00;0.00;;;;;;;4.90;89.57;101948.81;5016659;28;20026;-72
2021/12/12 03:14:58;;;;;;;0.10;0.10;;;;;;;4.91;89.43;101938.53;5017074;28;20021;-72
2021/12/12 03:17:24;;;;;;;0.00;0.00;;;;;;;4.90;89.63;101948.81;5017189;28;20080;-73
2021/12/12 03:19:55;;;;;;;0.00;0.00;;;;;;;4.88;89.76;101953.91;5016767;28;20026;-73
2021/12/12 03:22:24;;;;;;;0.00;0.00;;;;;;;4.95;89.58;101939.66;5018968;28;20029;-75
2021/12/12 03:24:50;;;;;;;0.00;0.00;;;;;;;4.97;89.86;101926.78;5052595;28;20299;-70
2021/12/12 03:27:15;;;;;;;0.00;0.00;;;;;;;4.99;89.75;101923.50;5020437;28;20104;-73
2021/12/12 03:29:43;;;;;;;0.00;0.00;;;;;;;5.04;89.65;101929.00;5018899;28;20133;-74
2021/12/12 03:32:14;;;;;;;0.00;0.00;;;;;;;5.09;89.71;101922.41;5011479;28;20125;-73
2021/12/12 03:34:45;;;;;;;0.00;0.00;;;;;;;5.09;89.93;101925.00;5000527;28;20077;-77
2021/12/12 03:37:13;;;;;;;0.00;0.00;;;;;;;5.14;89.76;101934.03;5001354;28;20258;-72
2021/12/12 03:39:41;;;;;;;0.00;0.00;;;;;;;5.17;89.94;101933.34;5001598;28;20038;-75
2021/12/12 03:42:12;;;;;;;0.00;0.00;;;;;;;5.18;90.43;101935.13;5000405;28;20427;-74
2021/12/12 03:44:38;;;;;;;0.00;0.00;;;;;;;5.19;90.63;101934.34;5011532;28;20161;-73
2021/12/12 03:47:19;;;;;;;0.00;0.00;;;;;;;5.25;90.43;101942.53;5020111;28;20044;-74
2021/12/12 03:49:45;;;;;;;0.00;0.00;;;;;;;5.27;89.93;101942.63;5003122;28;20045;-74
2021/12/12 03:52:12;;;;;;;0.20;0.20;;;;;;;5.31;89.87;101944.66;5019632;28;20041;-79
2021/12/12 03:54:39;;;;;;;0.00;0.00;;;;;;;5.34;90.08;101952.63;5020130;28;20307;-75
2021/12/12 03:57:05;;;;;;;2.53;0.53;;;;;;;5.42;90.05;101953.19;5019411;28;20084;-75
2021/12/12 03:59:30;;;;;;;0.00;0.00;;;;;;;5.46;90.10;101945.69;5015694;28;20121;-74
2021/12/12 04:01:57;;;;;;;0.00;0.00;;;;;;;5.48;89.74;101944.09;5000284;28;20417;-70
2021/12/12 04:04:32;;;;;;;0.00;0.00;;;;;;;5.52;89.82;101952.09;5013720;28;20297;-74
2021/12/12 04:06:58;;;;;;;0.00;0.00;;;;;;;5.51;90.04;101953.78;5019826;28;20296;-67
2021/12/12 04:09:24;;;;;;;0.03;0.03;;;;;;;5.50;89.90;101952.00;5019217;28;20036;-72
2021/12/12 04:11:53;;;;;;;0.00;0.00;;;;;;;5.53;89.67;101953.91;5018583;28;20030;-75
2021/12/12 04:14:20;;;;;;;0.00;0.00;;;;;;;5.56;89.72;101951.50;5019774;28;20026;-73
2021/12/12 04:16:50;;;;;;;0.00;0.00;;;;;;;5.56;89.63;101947.22;5018742;28;20408;-73
2021/12/12 04:19:15;;;;;;;0.00;0.00;;;;;;;5.56;89.77;101954.09;5019530;28;20068;-70
2021/12/12 04:21:42;;;;;;;0.00;0.00;;;;;;;5.59;89.52;101949.09;5018736;28;20303;-70
2021/12/12 04:24:07;;;;;;;0.40;0.40;;;;;;;5.60;89.51;101943.13;5019400;28;20022;-71
2021/12/12 04:26:36;;;;;;;0.00;0.00;;;;;;;5.61;89.52;101947.50;5019493;28;20320;-74
2021/12/12 04:29:18;;;;;;;0.00;0.00;;;;;;;5.57;89.60;101943.81;5019370;28;20029;-70
2021/12/12 04:31:52;;;;;;;0.00;0.00;;;;;;;5.58;89.74;101952.47;5018084;28;20046;-73
2021/12/12 04:34:20;;;;;;;0.00;0.00;;;;;;;5.60;89.79;101949.19;5001250;28;20030;-72
2021/12/12 04:36:48;;;;;;;0.00;0.00;;;;;;;5.62;89.82;101955.38;5017734;28;20104;-78
2021/12/12 04:39:25;;;;;;;0.00;0.00;;;;;;;5.70;89.51;101952.41;5019320;28;20320;-73
2021/12/12 04:41:52;;;;;;;0.00;0.00;;;;;;;5.69;89.68;101945.41;5018921;28;20029;-73
2021/12/12 04:44:22;;;;;;;0.00;0.00;;;;;;;5.68;89.64;101944.53;5018848;28;20257;-73
2021/12/12 04:50:34;;;;;;;0.03;0.03;;;;;;;5.67;89.76;101958.28;5018663;28;20080;-71
2021/12/12 04:53:22;;;;;;;0.00;0.00;;;;;;;5.72;89.91;101958.63;5018968;28;20026;-71
2021/12/12 04:55:55;;;;;;;0.57;0.33;;;;;;;5.76;89.68;101951.13;5018736;28;20060;-72
2021/12/12 04:58:49;;;;;;;0.10;0.10;;;;;;;5.73;89.74;101958.69;5018764;28;20288;-71
2021/12/12 05:01:22;;;;;;;0.00;0.00;;;;;;;5.73;89.61;101960.41;5018341;28;20029;-74
2021/12/12 05:03:55;;;;;;;0.00;0.00;;;;;;;5.71;89.95;101962.91;5013392;28;20034;-75
2021/12/12 05:06:37;;;;;;;0.00;0.00;;;;;;;5.75;89.74;101962.28;5001381;28;20297;-72
2021/12/12 05:09:25;;;;;;;0.00;0.00;;;;;;;5.77;89.94;101968.53;5018866;28;20294;-73
2021/12/12 05:11:56;;;;;;;0.00;0.00;;;;;;;5.83;89.99;101968.00;5009418;28;20289;-74
2021/12/12 05:14:25;;;;;;;0.00;0.00;;;;;;;5.84;89.65;101964.63;5019569;28;20034;-72
2021/12/12 05:17:02;;;;;;;1.03;0.73;;;;;;;5.83;89.92;101967.09;5017954;28;20049;-72
2021/12/12 05:19:29;;;;;;;0.00;0.00;;;;;;;5.84;89.88;101972.41;5033930;28;20121;-74
2021/12/12 05:21:59;;;;;;;0.10;0.10;;;;;;;5.87;89.85;101963.91;5018297;28;20034;-71
2021/12/12 05:24:26;;;;;;;0.10;0.10;;;;;;;5.87;89.80;101971.72;5017316;28;20064;-76
2021/12/12 05:26:57;;;;;;;0.00;0.00;;;;;;;5.89;89.56;101975.31;5017901;28;20072;-73
2021/12/12 05:29:26;;;;;;;1.07;1.03;;;;;;;5.93;89.70;101979.00;5017511;28;20057;-74
2021/12/12 05:31:54;;;;;;;0.00;0.00;;;;;;;5.91;90.05;101974.63;5033406;28;20083;-74
2021/12/12 05:34:23;;;;;;;0.00;0.00;;;;;;;5.93;89.94;101977.34;5017479;28;20055;-74
2021/12/12 05:36:51;;;;;;;0.10;0.10;;;;;;;5.92;90.16;101972.94;5016631;28;20057;-73
2021/12/12 05:39:16;;;;;;;0.00;0.00;;;;;;;5.96;90.08;101977.50;5032469;28;20427;-71
2021/12/12 05:41:42;;;;;;;0.00;0.00;;;;;;;6.00;90.03;101983.81;5033348;28;20022;-73
2021/12/12 05:44:08;;;;;;;0.00;0.00;;;;;;;6.01;90.10;101983.00;5018193;28;20017;-70
2021/12/12 05:46:34;;;;;;;0.00;0.00;;;;;;;6.02;89.96;101979.66;5004280;28;20056;-73
2021/12/12 05:49:04;;;;;;;0.00;0.00;;;;;;;6.03;90.00;101981.44;5033950;28;20380;-70
2021/12/12 05:51:30;;;;;;;0.10;0.10;;;;;;;6.05;90.15;101985.94;5032936;28;20407;-72
2021/12/12 05:53:56;;;;;;;0.10;0.10;;;;;;;6.03;90.03;101984.03;5017660;28;20025;-72
2021/12/12 05:56:23;;;;;;;0.00;0.00;;;;;;;6.09;90.32;101991.38;5017026;28;20372;-72
2021/12/12 05:58:50;;;;;;;0.03;0.03;;;;;;;6.15;89.83;101989.13;5015480;28;20041;-71
2021/12/12 06:01:16;;;;;;;0.00;0.00;;;;;;;6.17;89.93;102000.56;5018175;28;20257;-72
2021/12/12 06:03:42;;;;;;;0.00;0.00;;;;;;;6.19;89.98;101997.25;5017373;28;20057;-70
2021/12/12 06:06:15;;;;;;;0.00;0.00;;;;;;;6.17;89.85;101993.66;5017026;28;20022;-70
2021/12/12 06:08:42;;;;;;;0.10;0.10;;;;;;;6.19;89.69;101999.84;5017233;28;20084;-71
2021/12/12 06:11:08;;;;;;;0.10;0.10;;;;;;;6.19;90.10;101999.84;5017581;28;20381;-68
2021/12/12 06:13:36;;;;;;;0.10;0.10;;;;;;;6.18;90.06;102004.97;5027638;28;20044;-72
2021/12/12 06:16:01;;;;;;;0.03;0.03;;;;;;;6.22;90.25;102009.56;5017695;28;20030;-70
2021/12/12 06:18:29;;;;;;;0.07;0.07;;;;;;;6.25;90.20;102001.06;4997321;28;20374;-70
2021/12/12 06:20:55;;;;;;;0.00;0.00;;;;;;;6.29;90.38;102000.47;4997697;28;20048;-69
2021/12/12 06:23:21;;;;;;;0.00;0.00;;;;;;;6.33;90.19;102007.66;4997819;28;20377;-68
2021/12/12 06:25:47;;;;;;;0.00;0.00;;;;;;;6.37;90.02;102007.06;4996811;28;20022;-71
2021/12/12 06:28:24;;;;;;;0.10;0.10;;;;;;;6.37;90.08;102009.66;5008620;28;20045;-71
2021/12/12 06:30:49;;;;;;;0.00;0.00;;;;;;;6.38;90.09;102015.75;5017509;28;20068;-71
2021/12/12 06:33:15;;;;;;;0.03;0.03;;;;;;;6.39;90.25;102014.94;5016472;28;20045;-71
2021/12/12 06:35:41;;;;;;;0.10;0.10;;;;;;;6.41;90.13;102018.56;5017203;28;20022;-71
2021/12/12 06:38:09;;;;;;;0.00;0.00;;;;;;;6.39;90.24;102008.03;5011453;28;20026;-72
2021/12/12 06:40:36;;;;;;;0.10;0.10;;;;;;;6.43;90.14;102020.44;5001430;28;20106;-73
2021/12/12 06:43:05;;;;;;;0.00;0.00;;;;;;;6.41;89.80;102014.25;5013763;28;20053;-73
2021/12/12 06:45:31;;;;;;;0.00;0.00;;;;;;;6.49;90.23;102016.44;5017088;28;20033;-71
2021/12/12 06:47:57;;;;;;;0.00;0.00;;;;;;;6.49;90.11;102011.22;5016118;28;20014;-72
2021/12/12 06:50:24;;;;;;;0.00;0.00;;;;;;;6.52;90.38;102022.75;5012925;28;20400;-76
2021/12/12 06:52:50;;;;;;;0.00;0.00;;;;;;;6.55;90.14;102022.03;5007486;28;20041;-71
2021/12/12 06:55:16;;;;;;;0.00;0.00;;;;;;;6.58;90.12;102023.13;5016556;28;20019;-73
2021/12/12 06:57:42;;;;;;;0.03;0.03;;;;;;;6.60;90.19;102025.81;5015906;28;20029;-73
2021/12/12 07:00:14;;;;;;;0.10;0.10;;;;;;;6.64;90.09;102025.22;5020200;28;20033;-73
2021/12/12 07:02:41;;;;;;;0.00;0.00;;;;;;;6.61;90.23;102025.03;5019720;28;20399;-73
2021/12/12 07:05:08;;;;;;;0.00;0.00;;;;;;;6.64;90.12;102034.72;5021102;28;20037;-73
2021/12/12 07:07:34;;;;;;;0.00;0.00;;;;;;;6.67;90.06;102033.22;5020006;28;20100;-72
2021/12/12 07:09:59;;;;;;;0.00;0.00;;;;;;;6.63;89.98;102028.63;5020199;28;20022;-70
2021/12/12 07:12:25;;;;;;;0.00;0.00;;;;;;;6.66;90.14;102034.03;5012405;28;20034;-72
2021/12/12 07:14:52;;;;;;;0.00;0.00;;;;;;;6.65;90.09;102032.22;5000232;28;20032;-73
2021/12/12 07:17:18;;;;;;;0.00;0.00;;;;;;;6.70;90.11;102035.13;5000392;28;20377;-75
2021/12/12 07:19:44;;;;;;;0.00;0.00;;;;;;;6.73;90.20;102044.03;5021333;28;20022;-74
2021/12/12 07:22:10;;;;;;;0.10;0.10;;;;;;;6.70;90.24;102049.03;5019898;28;20067;-73
2021/12/12 07:24:36;;;;;;;0.53;0.53;;;;;;;6.78;90.29;102043.44;5035930;28;20025;-74
2021/12/12 07:27:01;;;;;;;0.73;0.73;;;;;;;6.77;90.17;102052.06;5011644;28;20026;-71
2021/12/12 07:29:28;;;;;;;0.00;0.00;;;;;;;6.78;90.26;102048.63;5000337;28;20022;-74
2021/12/12 07:31:53;;;;;;;0.00;0.00;;;;;;;6.75;90.34;102044.13;5000107;28;20096;-73
2021/12/12 07:34:19;;;;;;;0.00;0.00;;;;;;;6.83;90.39;102058.53;5016617;28;20034;-74
2021/12/12 07:36:50;;;;;;;0.00;0.00;;;;;;;6.83;90.25;102055.94;5000401;28;20068;-76
2021/12/12 07:39:17;;;;;;;0.03;0.03;;;;;;;6.82;90.02;102045.41;5006324;28;20025;-70
2021/12/12 07:41:46;;;;;;;0.10;0.10;;;;;;;6.89;90.29;102049.31;5019654;28;20101;-75
2021/12/12 07:44:13;;;;;;;0.00;0.00;;;;;;;6.89;90.31;102046.72;5005754;28;20038;-73
2021/12/12 07:46:38;;;;;;;0.00;0.00;;;;;;;6.93;89.89;102062.63;5012553;28;20018;-74
2021/12/12 07:49:05;;;;;;;0.10;0.10;;;;;;;6.91;90.31;102058.13;5001503;28;20312;-75
2021/12/12 07:51:32;;;;;;;0.00;0.00;;;;;;;6.88;90.32;102066.63;5005553;28;20077;-75
2021/12/12 07:54:01;;;;;;;0.10;0.10;;;;;;;6.96;90.21;102061.88;5019700;28;20030;-75
2021/12/12 07:56:31;;;;;;;0.00;0.00;;;;;;;6.99;90.14;102068.19;5018999;28;20026;-73
2021/12/12 07:58:59;;;;;;;0.00;0.00;;;;;;;6.99;90.24;102064.72;5019277;28;20133;-72
2021/12/12 08:01:26;;;;;;;0.00;0.00;;;;;;;7.01;90.07;102070.91;5019281;28;20030;-73
2021/12/12 08:03:53;;;;;;;0.10;0.10;;;;;;;6.98;90.25;102070.72;5019868;28;20026;-76
2021/12/12 08:06:20;;;;;;;0.00;0.00;;;;;;;7.00;90.23;102075.22;5017048;28;20034;-73
2021/12/12 08:08:46;;;;;;;0.00;0.00;;;;;;;7.10;90.19;102081.88;5006683;28;20057;-73
2021/12/12 08:11:16;;;;;;;0.40;0.40;;;;;;;7.12;89.64;102079.41;5018422;28;20427;-73
2021/12/12 08:13:41;;;;;;;0.00;0.00;;;;;;;7.12;90.02;102093.31;5018468;28;20065;-72
2021/12/12 08:16:09;;;;;;;0.10;0.10;;;;;;;7.12;89.91;102087.22;5018256;28;20072;-74
2021/12/12 08:18:35;;;;;;;0.00;0.00;;;;;;;7.12;89.91;102095.03;4998762;28;20038;-72
2021/12/12 08:21:00;;;;;;;0.00;0.00;;;;;;;7.11;90.29;102104.53;5014284;28;20034;-74
2021/12/12 08:23:26;;;;;;;0.00;0.00;;;;;;;7.12;90.17;102103.72;5007840;28;20030;-73
2021/12/12 08:25:54;;;;;;;0.10;0.10;;;;;;;7.13;90.07;102094.22;5017677;28;20157;-74
2021/12/12 08:28:20;;;;;;;0.00;0.00;;;;;;;7.13;90.28;102108.16;5008206;28;20096;-73
2021/12/12 08:30:47;;;;;;;0.00;0.00;;;;;;;7.20;90.19;102111.13;5018229;28;20062;-74
2021/12/12 08:33:13;;;;;;;0.10;0.10;;;;;;;7.18;90.28;102116.25;5018003;28;20026;-72
2021/12/12 08:35:39;;;;;;;0.10;0.10;;;;;;;7.18;90.31;102110.13;5019046;28;20037;-74
2021/12/12 08:38:08;;;;;;;0.10;0.10;;;;;;;7.20;90.73;102118.94;5008717;28;20037;-73
2021/12/12 08:40:43;;;;;;;0.00;0.00;;;;;;;7.23;90.23;102113.94;5016493;28;20030;-74
2021/12/12 08:43:12;;;;;;;0.00;0.00;;;;;;;7.32;90.26;102105.78;5016374;28;20037;-74
2021/12/12 08:45:42;;;;;;;0.00;0.00;;;;;;;7.31;90.16;102120.53;5016249;28;20288;-74
2021/12/12 08:48:08;;;;;;;0.00;0.00;;;;;;;7.30;90.69;102121.34;5018293;28;20026;-74
2021/12/12 08:50:36;;;;;;;0.03;0.03;;;;;;;7.36;90.31;102123.41;4998726;28;20050;-76
2021/12/12 08:53:03;;;;;;;0.17;0.17;;;;;;;7.40;90.31;102122.78;5014562;28;20026;-72
2021/12/12 08:55:34;;;;;;;0.00;0.00;;;;;;;7.37;90.24;102128.72;4998929;28;20038;-73
2021/12/12 08:58:14;;;;;;;0.00;0.00;;;;;;;7.39;90.27;102134.94;5008531;28;20384;-72
2021/12/12 09:00:44;;;;;;;0.00;0.00;;;;;;;7.37;90.30;102130.41;5018448;28;20026;-74
2021/12/12 09:03:10;;;;;;;0.00;0.00;;;;;;;7.38;90.32;102138.34;5016881;28;20049;-75
2021/12/12 09:05:40;;;;;;;0.00;0.00;;;;;;;7.42;90.38;102142.94;5017772;28;20040;-74
2021/12/12 09:08:10;;;;;;;0.10;0.10;;;;;;;7.48;90.32;102138.91;5017827;28;20150;-73
2021/12/12 09:10:58;;;;;;;0.00;0.00;;;;;;;7.48;90.52;102147.63;5017667;28;20040;-74
2021/12/12 09:13:35;;;;;;;0.10;0.10;;;;;;;7.46;90.33;102146.63;5016410;28;20065;-72
2021/12/12 09:16:03;;;;;;;;;;;;;;;7.49;90.42;102153.75;5018222;28;20079;-72
2021/12/12 09:18:36;;;;;;;0.00;0.00;;;;;;;7.52;90.32;102147.00;5017927;28;19913;-75
2021/12/12 09:21:23;;;;;;;0.00;0.00;;;;;;;7.53;90.43;102161.84;5018254;28;20036;-74
2021/12/12 09:23:50;;;;;;;;;;;;;;;7.54;90.35;102163.63;5017850;28;20376;-76
2021/12/12 09:26:23;;;;;;;0.00;0.00;;;;;;;7.62;90.38;102156.31;5012817;28;20291;-76
2021/12/12 09:28:54;;;;;;;0.00;0.00;;;;;;;7.65;90.51;102166.91;5005265;28;20033;-73
2021/12/12 09:31:27;;;;;;;0.00;0.00;;;;;;;7.70;90.30;102165.50;5017125;28;20030;-74
2021/12/12 09:33:56;;;;;;;0.00;0.00;;;;;;;7.73;90.44;102169.09;5012808;28;20084;-71
2021/12/12 09:36:40;;;;;;;0.00;0.00;;;;;;;7.75;90.19;102165.78;5015655;28;20333;-71
2021/12/12 09:39:11;;;;;;;0.00;0.00;;;;;;;7.74;90.29;102169.19;5004805;28;20058;-73
2021/12/12 09:42:04;;;;;;;0.00;0.00;;;;;;;7.78;90.12;102165.97;5012904;28;20391;-72
2021/12/12 09:44:57;;;;;;;0.00;0.00;;;;;;;7.81;90.28;102180.91;5017236;28;20308;-75
2021/12/12 09:53:58;;;;;;;0.08;0.08;;;;;;;7.74;89.94;102174.41;5016315;28;20144;-70
2021/12/12 09:56:45;;;;;;;0.00;0.00;;;;;;;7.80;90.03;102179.09;5017556;28;20022;-71
2021/12/12 09:59:25;;;;;;;0.00;0.00;;;;;;;7.76;90.16;102170.19;5017501;28;20048;-70
2021/12/12 10:02:04;;;;;;;0.00;0.00;;;;;;;7.76;90.16;102169.28;5017017;28;20049;-72
2021/12/12 10:04:39;;;;;;;0.03;0.03;;;;;;;7.76;90.17;102172.78;5017383;28;20048;-72
2021/12/12 10:07:06;;;;;;;0.00;0.00;;;;;;;7.80;90.19;102176.50;5007872;28;20040;-70
2021/12/12 10:10:00;;;;;;;0.10;0.10;;;;;;;7.80;90.15;102179.09;4997609;28;20018;-71
2021/12/12 10:12:30;;;;;;;0.10;0.10;;;;;;;7.77;89.97;102179.81;4995979;28;20049;-71
2021/12/12 10:14:58;;;;;;;0.10;0.10;;;;;;;7.77;90.23;102181.50;5026019;28;20021;-71
2021/12/12 10:17:35;;;;;;;0.00;0.00;;;;;;;7.74;90.12;102177.03;5013253;28;20038;-70
2021/12/12 10:20:06;;;;;;;0.00;0.00;;;;;;;7.75;90.24;102180.50;5016286;28;20025;-72
2021/12/12 10:23:21;;;;;;;0.10;0.10;;;;;;;7.77;90.42;102185.03;5016380;28;20356;-70
2021/12/12 10:25:53;;;;;;;0.07;0.07;;;;;;;7.76;90.21;102178.00;5016271;28;20038;-70
2021/12/12 10:28:45;;;;;;;0.00;0.00;;;;;;;7.79;90.27;102188.63;5015915;28;20032;-70
2021/12/12 10:31:22;;;;;;;0.00;0.00;;;;;;;7.82;90.30;102181.00;5015394;28;20053;-71
2021/12/12 10:33:59;;;;;;;0.00;0.00;;;;;;;7.81;90.27;102188.72;5021164;28;20030;-71
2021/12/12 10:36:30;;;;;;;0.00;0.00;;;;;;;7.84;90.19;102183.69;5018716;28;20065;-70
2021/12/12 10:39:05;;;;;;;0.03;0.03;;;;;;;7.83;90.25;102181.88;5020471;28;20025;-71
2021/12/12 10:41:59;;;;;;;0.17;0.17;;;;;;;7.86;90.40;102189.00;5021118;28;20270;-69
2021/12/12 10:44:27;;;;;;;0.00;0.00;;;;;;;7.90;90.37;102181.44;5021503;28;20060;-69
2021/12/12 10:47:09;;;;;;;0.10;0.10;;;;;;;7.91;90.60;102182.38;5006859;28;20041;-70
2021/12/12 10:49:57;;;;;;;0.10;0.10;;;;;;;7.97;90.52;102185.34;5002526;28;20033;-71
2021/12/12 10:52:32;;;;;;;0.10;0.10;;;;;;;8.02;90.46;102180.41;5006869;28;20042;-70
2021/12/12 10:55:07;;;;;;;0.15;0.15;;;;;;;8.00;90.48;102189.81;5001672;28;20026;-70
2021/12/12 10:57:35;;;;;;;0.10;0.10;;;;;;;8.01;90.33;102183.81;5007247;28;20030;-70
2021/12/12 11:00:28;;;;;;;0.00;0.00;;;;;;;8.02;90.43;102188.25;5011666;28;20033;-71
2021/12/12 11:03:02;;;;;;;0.67;0.33;;;;;;;8.06;90.57;102190.22;5018109;28;20041;-70
2021/12/12 11:05:40;;;;;;;0.23;0.23;;;;;;;8.07;90.45;102185.09;5042461;28;20024;-71
2021/12/12 11:08:34;;;;;;;0.03;0.03;;;;;;;8.08;90.51;102192.09;5019655;28;20053;-70
2021/12/12 11:11:00;;;;;;;0.10;0.10;;;;;;;8.09;90.33;102190.38;5011922;28;20034;-71
2021/12/12 11:13:37;;;;;;;0.20;0.20;;;;;;;8.15;90.65;102195.09;5019619;28;20100;-70
2021/12/12 11:16:09;;;;;;;0.00;0.00;;;;;;;8.16;90.50;102194.28;5020673;28;20311;-72
2021/12/12 11:18:40;;;;;;;0.00;0.00;;;;;;;8.21;90.56;102196.34;5002830;28;20071;-70
2021/12/12 11:21:26;;;;;;;0.07;0.07;;;;;;;8.25;90.67;102182.69;5003454;28;20025;-70
2021/12/12 11:23:54;;;;;;;0.10;0.10;;;;;;;8.26;90.57;102194.00;5020123;28;20389;-70
2021/12/12 11:26:49;;;;;;;0.00;0.00;;;;;;;8.29;90.68;102194.19;5034802;28;20058;-70
2021/12/12 11:29:25;;;;;;;0.00;0.00;;;;;;;8.32;90.18;102188.25;4996342;28;20045;-71
2021/12/12 11:31:55;;;;;;;0.00;0.00;;;;;;;8.33;90.48;102196.19;5019862;28;20049;-70
2021/12/12 11:34:22;;;;;;;0.20;0.10;;;;;;;8.37;90.52;102198.19;5017782;28;20042;-69
2021/12/12 11:37:18;;;;;;;0.00;0.00;;;;;;;8.39;90.42;102191.31;5019976;28;20103;-70
2021/12/12 11:39:50;;;;;;;0.00;0.00;;;;;;;8.45;90.83;102202.91;5018970;28;20060;-69
2021/12/12 11:42:19;;;;;;;0.00;0.00;;;;;;;8.46;90.61;102203.03;5035341;28;20372;-69
2021/12/12 11:44:52;;;;;;;0.10;0.10;;;;;;;8.52;90.46;102200.81;5018836;28;20396;-70
2021/12/12 11:47:39;;;;;;;0.07;0.07;;;;;;;8.59;91.12;102203.78;5019561;28;20030;-70
2021/12/12 11:50:12;;;;;;;0.10;0.10;;;;;;;8.64;90.66;102210.16;5011421;28;20064;-70
2021/12/12 11:52:56;;;;;;;0.00;0.00;;;;;;;8.65;90.41;102211.94;5000442;28;20030;-70
2021/12/12 11:55:51;;;;;;;0.00;0.00;;;;;;;8.65;90.58;102212.88;5012270;28;20125;-70
2021/12/12 11:59:00;;;;;;;1.60;0.20;;;;;;;8.64;90.45;102208.47;5013394;28;20041;-69
2021/12/12 12:01:34;;;;;;;0.00;0.00;;;;;;;8.70;90.58;102214.84;5011684;28;20030;-70
2021/12/12 12:04:12;;;;;;;0.20;0.20;;;;;;;8.71;90.49;102214.94;5018678;28;20128;-70
2021/12/12 12:06:50;;;;;;;0.00;0.00;;;;;;;8.71;90.48;102212.31;5006682;28;20245;-70
2021/12/12 12:09:34;;;;;;;0.00;0.00;;;;;;;8.69;90.48;102211.34;5035117;28;20109;-70
2021/12/12 12:12:02;;;;;;;0.07;0.07;;;;;;;8.71;90.54;102211.44;5019370;28;20294;-70
2021/12/12 12:15:05;;;;;;;0.00;0.00;;;;;;;8.71;90.62;102212.31;5019177;28;20033;-70
2021/12/12 12:18:03;;;;;;;0.00;0.00;;;;;;;8.79;90.26;102224.09;5034346;28;20100;-69
2021/12/12 12:20:40;;;;;;;0.10;0.10;;;;;;;8.82;90.66;102222.50;5023450;28;20113;-70